Time;durP1;ratioP1;P1;durP2;ratioP2;P2;SDS_P1;SDS_P2;PMS_P1;PMS_P2;Temp;Humidity;BMP_temperature;BMP_pressure;BME280_temperature;BME280_humidity;BME280_pressure;Samples;Min_cycle;Max_cycle;Signal;HPM_P1;HPM_P2
2023/07/11 00:00:06;;;;;;;2.88;2.00;;;22.60;62.50;;;;;;5044979;28;20029;-67
2023/07/11 00:02:33;;;;;;;3.53;2.10;;;22.50;62.70;;;;;;5049049;28;20017;-68
2023/07/11 00:04:59;;;;;;;3.22;2.20;;;22.50;62.80;;;;;;5047299;28;20044;-68
2023/07/11 00:07:26;;;;;;;4.35;2.03;;;22.50;62.80;;;;;;5043917;28;20483;-67
2023/07/11 00:09:52;;;;;;;4.57;2.20;;;22.40;62.70;;;;;;5043012;28;20498;-67
2023/07/11 00:12:19;;;;;;;3.95;1.90;;;22.40;62.70;;;;;;5045885;28;20033;-67
2023/07/11 00:14:45;;;;;;;5.13;2.35;;;22.40;62.70;;;;;;5045645;28;20025;-68
2023/07/11 00:17:11;;;;;;;3.92;1.90;;;22.40;62.90;;;;;;5046872;28;20111;-67
2023/07/11 00:19:52;;;;;;;3.70;1.92;;;22.40;62.70;;;;;;5041298;28;20143;-68
2023/07/11 00:22:18;;;;;;;4.40;2.07;;;22.40;62.60;;;;;;5047911;28;20025;-68
2023/07/11 00:24:44;;;;;;;3.83;1.70;;;22.30;62.80;;;;;;5048841;28;20283;-67
2023/07/11 00:27:11;;;;;;;3.42;1.77;;;22.30;62.70;;;;;;5048954;28;20418;-68
2023/07/11 00:29:37;;;;;;;3.80;1.77;;;22.30;62.60;;;;;;5048458;28;20446;-67
2023/07/11 00:32:03;;;;;;;5.10;1.80;;;22.30;62.60;;;;;;5058323;28;20098;-67
2023/07/11 00:34:29;;;;;;;2.97;1.80;;;22.30;62.70;;;;;;5063447;28;20498;-67
2023/07/11 00:36:54;;;;;;;3.92;2.00;;;22.30;62.70;;;;;;5056047;28;20108;-67
2023/07/11 00:39:20;;;;;;;4.10;1.88;;;22.30;62.70;;;;;;5049129;28;20025;-67
2023/07/11 00:41:46;;;;;;;2.10;1.67;;;22.30;62.70;;;;;;5055171;28;20498;-67
2023/07/11 00:44:16;;;;;;;3.17;1.83;;;22.30;62.70;;;;;;5033626;28;20048;-67
2023/07/11 00:46:42;;;;;;;7.00;2.83;;;22.30;62.70;;;;;;5050865;28;20497;-67
2023/07/11 00:49:11;;;;;;;3.33;1.85;;;22.30;62.60;;;;;;5052548;28;20021;-66
2023/07/11 00:51:59;;;;;;;3.67;1.80;;;22.30;62.50;;;;;;5053745;28;20440;-66
2023/07/11 00:54:30;;;;;;;6.28;1.80;;;22.40;62.40;;;;;;5052067;28;20388;-68
2023/07/11 00:56:58;;;;;;;3.17;1.50;;;22.40;62.30;;;;;;5052574;28;20522;-67
2023/07/11 00:59:24;;;;;;;2.35;1.48;;;22.40;62.20;;;;;;5049706;28;20037;-68
2023/07/11 01:02:05;;;;;;;3.05;1.88;;;22.40;62.10;;;;;;5050528;28;20017;-69
2023/07/11 01:04:31;;;;;;;3.45;1.80;;;22.50;62.00;;;;;;5050271;28;20029;-67
2023/07/11 01:06:56;;;;;;;2.72;1.70;;;22.40;62.10;;;;;;5050948;28;20032;-66
2023/07/11 01:09:22;;;;;;;3.33;1.40;;;22.40;62.00;;;;;;5051969;28;20396;-66
2023/07/11 01:12:03;;;;;;;3.35;1.42;;;22.50;61.80;;;;;;5054675;28;20028;-67
2023/07/11 01:14:29;;;;;;;3.90;1.75;;;22.50;61.70;;;;;;5045978;28;20106;-66
2023/07/11 01:16:55;;;;;;;2.38;1.05;;;22.50;61.70;;;;;;5055213;28;20056;-66
2023/07/11 01:19:23;;;;;;;4.43;1.90;;;22.40;61.80;;;;;;5051556;28;20071;-66
2023/07/11 01:21:49;;;;;;;3.40;1.60;;;22.40;62.10;;;;;;5050406;28;20071;-66
2023/07/11 01:24:15;;;;;;;4.60;1.60;;;22.30;62.10;;;;;;5031936;28;20021;-67
2023/07/11 01:26:41;;;;;;;4.00;1.50;;;22.30;62.10;;;;;;5052691;28;20683;-68
2023/07/11 01:29:08;;;;;;;3.10;1.80;;;22.30;62.10;;;;;;5050574;28;20054;-68
2023/07/11 01:31:34;;;;;;;4.05;1.60;;;22.30;62.20;;;;;;5053732;28;20025;-67
2023/07/11 01:34:04;;;;;;;4.45;1.77;;;22.30;62.30;;;;;;5051749;28;20044;-68
2023/07/11 01:36:30;;;;;;;2.95;1.90;;;22.30;62.30;;;;;;5049960;28;20029;-68
2023/07/11 01:38:57;;;;;;;3.67;1.42;;;22.30;62.30;;;;;;5051284;28;20082;-67
2023/07/11 01:41:23;;;;;;;4.07;1.77;;;22.30;62.20;;;;;;5050746;28;20013;-68
2023/07/11 01:43:50;;;;;;;3.78;1.50;;;22.30;62.20;;;;;;5051400;28;20369;-68
2023/07/11 01:46:15;;;;;;;2.88;1.65;;;22.30;62.20;;;;;;5034167;28;20025;-67
2023/07/11 01:48:41;;;;;;;2.17;1.73;;;22.30;62.30;;;;;;5051278;28;20497;-67
2023/07/11 01:51:06;;;;;;;2.75;1.65;;;22.20;62.40;;;;;;5055964;28;20486;-67
2023/07/11 01:53:32;;;;;;;4.40;1.45;;;22.20;62.40;;;;;;5051903;28;20029;-67
2023/07/11 01:56:01;;;;;;;3.50;1.70;;;22.20;62.50;;;;;;5033350;28;20033;-68
2023/07/11 01:58:28;;;;;;;4.47;1.60;;;22.20;62.60;;;;;;5065175;28;20032;-68
2023/07/11 02:00:55;;;;;;;3.53;1.85;;;22.20;62.50;;;;;;5059562;28;20095;-67
2023/07/11 02:03:21;;;;;;;3.15;1.50;;;22.20;62.60;;;;;;5069070;28;20391;-68
2023/07/11 02:05:46;;;;;;;3.95;1.80;;;22.20;62.70;;;;;;5070865;28;20070;-67
2023/07/11 02:08:12;;;;;;;3.50;1.65;;;22.10;62.80;;;;;;5059270;28;20036;-67
2023/07/11 02:10:37;;;;;;;3.45;1.67;;;22.10;62.80;;;;;;5051154;28;20037;-67
2023/07/11 02:13:03;;;;;;;4.68;2.00;;;22.10;62.90;;;;;;5051634;28;20024;-68
2023/07/11 02:15:29;;;;;;;3.65;1.70;;;22.00;62.90;;;;;;5049722;28;20395;-68
2023/07/11 02:17:54;;;;;;;2.75;1.55;;;22.00;63.40;;;;;;5049770;28;20119;-68
2023/07/11 02:20:20;;;;;;;3.83;1.60;;;22.00;62.70;;;;;;5050371;28;20029;-69
2023/07/11 02:22:46;;;;;;;3.03;1.75;;;22.00;62.70;;;;;;5048747;28;20021;-68
2023/07/11 02:25:12;;;;;;;3.30;1.60;;;22.00;62.60;;;;;;5052909;28;20436;-68
2023/07/11 02:27:37;;;;;;;5.35;1.80;;;22.00;62.70;;;;;;5057482;28;20036;-68
2023/07/11 02:30:03;;;;;;;3.03;1.50;;;22.00;62.80;;;;;;5050457;28;20029;-68
2023/07/11 02:32:29;;;;;;;3.47;1.73;;;22.00;62.80;;;;;;5056285;28;20035;-67
2023/07/11 02:34:55;;;;;;;2.85;1.50;;;21.90;62.90;;;;;;5050129;28;20029;-67
2023/07/11 02:37:21;;;;;;;3.42;1.60;;;21.90;63.00;;;;;;5037714;28;20032;-68
2023/07/11 02:39:47;;;;;;;3.97;1.85;;;21.90;63.10;;;;;;5070651;28;20025;-68
2023/07/11 02:42:13;;;;;;;4.85;1.90;;;21.80;63.30;;;;;;5066347;28;20544;-68
2023/07/11 02:44:38;;;;;;;3.50;1.98;;;21.70;63.50;;;;;;5050438;28;20104;-69
2023/07/11 02:47:04;;;;;;;3.53;1.67;;;21.70;63.60;;;;;;5053582;28;20029;-68
2023/07/11 02:49:30;;;;;;;4.13;1.90;;;21.70;63.60;;;;;;5050527;28;20029;-67
2023/07/11 02:51:56;;;;;;;4.07;1.73;;;21.70;63.60;;;;;;5053637;28;20024;-69
2023/07/11 02:54:21;;;;;;;2.78;1.75;;;21.70;63.60;;;;;;5044035;28;20573;-68
2023/07/11 02:56:47;;;;;;;3.15;1.60;;;21.70;63.60;;;;;;5034436;28;20041;-69
2023/07/11 02:59:12;;;;;;;5.13;2.40;;;21.70;63.80;;;;;;5070181;28;20103;-69
2023/07/11 03:01:38;;;;;;;3.10;1.88;;;21.70;63.80;;;;;;5070056;28;20031;-69
2023/07/11 03:04:04;;;;;;;5.00;2.00;;;21.60;63.80;;;;;;5050026;28;20033;-68
2023/07/11 03:06:29;;;;;;;5.68;1.92;;;21.60;64.00;;;;;;5050102;28;20126;-69
2023/07/11 03:08:55;;;;;;;3.97;2.10;;;21.60;64.10;;;;;;5068884;28;20036;-69
2023/07/11 03:11:20;;;;;;;3.72;2.08;;;21.60;64.30;;;;;;5069821;28;20104;-69
2023/07/11 03:13:46;;;;;;;3.83;2.00;;;21.50;64.40;;;;;;5069152;28;20379;-69
2023/07/11 03:16:12;;;;;;;4.38;2.40;;;21.50;64.50;;;;;;5050601;28;20040;-69
2023/07/11 03:18:37;;;;;;;4.47;2.00;;;21.50;64.60;;;;;;5066754;28;20016;-69
2023/07/11 03:21:03;;;;;;;3.00;1.90;;;21.50;64.70;;;;;;5051054;28;20025;-69
2023/07/11 03:23:30;;;;;;;3.17;1.80;;;21.40;64.80;;;;;;5049760;28;20021;-69
2023/07/11 03:25:56;;;;;;;2.60;1.70;;;21.40;64.80;;;;;;5066746;28;20036;-69
2023/07/11 03:28:22;;;;;;;4.30;1.92;;;21.40;64.80;;;;;;5062258;28;20504;-68
2023/07/11 03:30:48;;;;;;;5.00;1.80;;;21.40;65.00;;;;;;5065098;28;20032;-68
2023/07/11 03:33:14;;;;;;;5.32;2.13;;;21.40;65.10;;;;;;5069532;28;20127;-68
2023/07/11 03:35:40;;;;;;;2.70;1.60;;;21.30;65.20;;;;;;5055871;28;20036;-68
2023/07/11 03:38:05;;;;;;;3.10;1.80;;;21.30;65.20;;;;;;5049888;28;20037;-69
2023/07/11 03:40:31;;;;;;;4.03;1.80;;;21.30;65.20;;;;;;5046251;28;20024;-69
2023/07/11 03:42:57;;;;;;;2.67;1.60;;;21.30;65.30;;;;;;5049793;28;20033;-68
2023/07/11 03:45:23;;;;;;;6.50;1.90;;;21.30;65.30;;;;;;5053483;28;20379;-68
2023/07/11 03:47:49;;;;;;;4.93;2.10;;;21.30;65.50;;;;;;5067956;28;20029;-69
2023/07/11 03:50:15;;;;;;;4.45;1.67;;;21.20;65.60;;;;;;5061377;28;20029;-69
2023/07/11 03:52:40;;;;;;;4.18;1.85;;;21.20;65.60;;;;;;5049958;28;20361;-68
2023/07/11 03:55:07;;;;;;;4.28;2.00;;;21.20;65.80;;;;;;5052374;28;20711;-69
2023/07/11 03:57:33;;;;;;;2.25;1.60;;;21.20;65.80;;;;;;5054008;28;20025;-69
2023/07/11 03:59:58;;;;;;;4.88;1.98;;;21.20;65.70;;;;;;5051153;28;20281;-69
2023/07/11 04:02:24;;;;;;;4.43;1.88;;;21.20;65.70;;;;;;5050702;28;20029;-69
2023/07/11 04:04:49;;;;;;;4.22;1.88;;;21.20;65.90;;;;;;5034119;28;20029;-69
2023/07/11 04:07:15;;;;;;;3.80;2.30;;;21.20;66.20;;;;;;5053355;28;20033;-69
2023/07/11 04:09:41;;;;;;;3.58;2.30;;;21.10;66.20;;;;;;5054029;28;20065;-69
2023/07/11 04:12:08;;;;;;;3.35;2.10;;;21.10;66.30;;;;;;5056214;28;20025;-69
2023/07/11 04:14:34;;;;;;;4.55;1.90;;;21.10;66.50;;;;;;5068998;28;20487;-70
2023/07/11 04:16:59;;;;;;;3.55;1.77;;;21.10;66.40;;;;;;5050422;28;20029;-69
2023/07/11 04:19:25;;;;;;;4.60;2.17;;;21.10;66.20;;;;;;5054861;28;20024;-69
2023/07/11 04:21:50;;;;;;;2.80;1.80;;;21.20;66.30;;;;;;5046638;28;20345;-68
2023/07/11 04:24:16;;;;;;;3.75;2.35;;;21.20;66.20;;;;;;5041299;28;20480;-68
2023/07/11 04:26:42;;;;;;;3.67;1.92;;;21.10;66.40;;;;;;5051075;28;20356;-67
2023/07/11 04:29:07;;;;;;;3.10;2.17;;;21.10;66.40;;;;;;5051017;28;20032;-68
2023/07/11 04:31:33;;;;;;;5.90;2.10;;;21.10;66.50;;;;;;5051737;28;20029;-67
2023/07/11 04:33:58;;;;;;;3.95;2.28;;;21.10;66.60;;;;;;5050549;28;20067;-68
2023/07/11 04:36:24;;;;;;;4.25;1.95;;;21.10;66.60;;;;;;5040669;28;20071;-68
2023/07/11 04:38:50;;;;;;;4.63;2.38;;;21.10;66.50;;;;;;5052702;28;20025;-68
2023/07/11 04:41:16;;;;;;;3.80;2.30;;;21.10;66.80;;;;;;5059096;28;20103;-68
2023/07/11 04:43:41;;;;;;;4.78;2.20;;;21.10;67.00;;;;;;5052612;28;20419;-68
2023/07/11 04:46:08;;;;;;;3.80;2.00;;;21.00;67.20;;;;;;5044517;28;20056;-68
2023/07/11 04:48:34;;;;;;;5.68;2.50;;;21.10;67.30;;;;;;5051990;28;20483;-69
2023/07/11 04:51:03;;;;;;;4.55;2.20;;;21.10;67.40;;;;;;5057260;28;20032;-70
2023/07/11 04:53:29;;;;;;;5.00;2.17;;;21.00;67.40;;;;;;5050942;28;20036;-69
2023/07/11 04:56:00;;;;;;;5.07;2.40;;;21.10;67.60;;;;;;5057812;28;20454;-70
2023/07/11 04:58:29;;;;;;;3.42;2.00;;;21.10;67.50;;;;;;5059642;28;20032;-69
2023/07/11 05:01:00;;;;;;;5.95;2.45;;;21.10;67.50;;;;;;5052275;28;20021;-69
2023/07/11 05:03:26;;;;;;;3.17;2.00;;;21.20;67.70;;;;;;5045310;28;20032;-69
2023/07/11 05:05:51;;;;;;;4.10;2.50;;;21.70;66.80;;;;;;5061359;28;20419;-69
2023/07/11 05:08:17;;;;;;;3.38;2.08;;;22.20;65.80;;;;;;5066586;28;20090;-68
2023/07/11 05:11:13;;;;;;;3.15;2.00;;;22.80;64.10;;;;;;5053300;28;20032;-68
2023/07/11 05:13:39;;;;;;;4.78;2.35;;;23.40;63.10;;;;;;5050942;28;20052;-70
2023/07/11 05:16:17;;;;;;;4.57;2.40;;;23.90;61.00;;;;;;5051037;28;20154;-68
2023/07/11 05:18:45;;;;;;;2.65;2.00;;;24.30;60.00;;;;;;5051700;28;20056;-68
2023/07/11 05:21:13;;;;;;;3.55;2.00;;;24.70;59.10;;;;;;5053232;28;20021;-68
2023/07/11 05:23:39;;;;;;;2.95;2.17;;;25.00;58.30;;;;;;5054929;28;20676;-68
2023/07/11 05:26:06;;;;;;;5.57;2.00;;;25.20;57.80;;;;;;5058067;28;20032;-69
2023/07/11 05:28:32;;;;;;;5.13;2.20;;;25.50;57.30;;;;;;5039308;28;21607;-68
2023/07/11 05:31:01;;;;;;;3.90;2.30;;;25.80;56.70;;;;;;5050701;28;20033;-70
2023/07/11 05:33:28;;;;;;;5.10;2.20;;;26.00;56.30;;;;;;5050459;28;20025;-69
2023/07/11 05:38:44;;;;;;;4.13;2.20;;;26.30;55.50;;;;;;5046009;28;20509;-69
2023/07/11 05:41:09;;;;;;;3.35;2.10;;;26.50;55.20;;;;;;5052326;28;20049;-68
2023/07/11 05:43:35;;;;;;;4.97;2.38;;;26.40;55.00;;;;;;5055499;28;20388;-67
2023/07/11 05:46:01;;;;;;;4.25;2.22;;;26.50;55.00;;;;;;5051315;28;20017;-69
2023/07/11 05:48:26;;;;;;;4.10;2.25;;;26.50;55.10;;;;;;5055560;28;20059;-69
2023/07/11 05:51:14;;;;;;;2.95;2.15;;;26.70;54.70;;;;;;5053299;28;20029;-68
2023/07/11 05:53:40;;;;;;;3.75;2.10;;;26.70;54.70;;;;;;5051285;28;20016;-68
2023/07/11 05:56:06;;;;;;;4.18;2.28;;;27.10;54.50;;;;;;5050763;28;20116;-68
2023/07/11 05:58:33;;;;;;;5.85;2.20;;;27.30;54.10;;;;;;5050668;28;20032;-68
2023/07/11 06:00:59;;;;;;;5.28;2.33;;;27.30;54.10;;;;;;5050611;28;20055;-67
2023/07/11 06:03:26;;;;;;;6.25;2.42;;;27.10;54.00;;;;;;5056680;28;20044;-67
2023/07/11 06:05:55;;;;;;;4.38;2.10;;;27.10;54.40;;;;;;5058417;28;20431;-65
2023/07/11 06:08:21;;;;;;;3.30;1.88;;;27.20;54.70;;;;;;5059157;28;20028;-67
2023/07/11 06:10:47;;;;;;;3.75;2.30;;;27.20;54.60;;;;;;5050415;28;20102;-66
2023/07/11 06:13:14;;;;;;;3.95;2.30;;;27.00;54.90;;;;;;5051322;28;20035;-67
2023/07/11 06:15:40;;;;;;;5.68;2.55;;;27.00;55.00;;;;;;5034416;28;20075;-66
2023/07/11 06:18:06;;;;;;;3.38;2.17;;;27.00;55.10;;;;;;5059038;28;20025;-66
2023/07/11 06:20:32;;;;;;;4.80;2.35;;;26.80;55.00;;;;;;5049469;28;20427;-67
2023/07/11 06:22:58;;;;;;;3.45;2.22;;;26.70;55.10;;;;;;5066799;28;20028;-65
2023/07/11 06:25:24;;;;;;;3.58;2.25;;;26.80;55.30;;;;;;5059010;28;20057;-67
2023/07/11 06:27:49;;;;;;;2.67;1.88;;;26.70;55.10;;;;;;5050253;28;20055;-67
2023/07/11 06:30:15;;;;;;;3.78;2.00;;;26.70;55.00;;;;;;5045854;28;20029;-68
2023/07/11 06:32:41;;;;;;;6.85;2.80;;;26.60;54.90;;;;;;5053884;28;20032;-68
2023/07/11 06:35:07;;;;;;;3.10;1.75;;;26.40;54.80;;;;;;5048101;28;20481;-66
2023/07/11 06:37:32;;;;;;;4.35;1.90;;;26.30;55.30;;;;;;5059235;28;20574;-68
2023/07/11 06:39:59;;;;;;;4.07;2.25;;;26.40;55.50;;;;;;5051019;28;20360;-67
2023/07/11 06:42:24;;;;;;;5.60;2.58;;;26.40;55.50;;;;;;5051056;28;20094;-68
2023/07/11 06:44:50;;;;;;;3.45;1.80;;;26.40;55.50;;;;;;5057042;28;20017;-68
2023/07/11 06:47:16;;;;;;;3.72;2.22;;;26.40;55.30;;;;;;5048036;28;20422;-67
2023/07/11 06:49:43;;;;;;;4.65;2.10;;;26.40;55.60;;;;;;5052200;28;20021;-68
2023/07/11 06:52:09;;;;;;;3.78;1.70;;;26.60;55.70;;;;;;5050059;28;20669;-67
2023/07/11 06:54:35;;;;;;;2.92;1.90;;;26.70;55.40;;;;;;5052061;28;20471;-68
2023/07/11 06:57:01;;;;;;;3.33;2.20;;;26.80;54.70;;;;;;5054821;28;20035;-68
2023/07/11 06:59:27;;;;;;;3.97;1.85;;;26.90;54.00;;;;;;5053062;28;20082;-68
2023/07/11 07:01:52;;;;;;;3.72;2.05;;;26.80;53.40;;;;;;5049031;28;20017;-68
2023/07/11 07:04:18;;;;;;;2.65;1.60;;;26.80;53.20;;;;;;5064939;28;20033;-68
2023/07/11 07:06:44;;;;;;;3.35;1.95;;;26.90;53.60;;;;;;5048855;28;20043;-67
2023/07/11 07:09:10;;;;;;;4.43;2.20;;;27.10;53.40;;;;;;5049129;28;20086;-68
2023/07/11 07:11:36;;;;;;;3.92;1.80;;;27.10;52.90;;;;;;5049890;28;20024;-67
2023/07/11 07:14:08;;;;;;;4.07;1.80;;;27.10;52.90;;;;;;5049173;28;20025;-68
2023/07/11 07:16:35;;;;;;;4.00;2.10;;;27.20;53.10;;;;;;5048280;28;20078;-67
2023/07/11 07:19:02;;;;;;;4.93;2.40;;;27.40;53.10;;;;;;5047159;28;20626;-68
2023/07/11 07:21:28;;;;;;;5.38;2.40;;;27.30;52.60;;;;;;5051753;28;20016;-68
2023/07/11 07:23:53;;;;;;;4.25;2.28;;;27.40;52.50;;;;;;5048917;28;20033;-69
2023/07/11 07:26:19;;;;;;;4.97;2.13;;;27.50;52.70;;;;;;5049021;28;20025;-69
2023/07/11 07:28:44;;;;;;;4.22;2.42;;;27.50;52.70;;;;;;5066252;28;20127;-68
2023/07/11 07:31:11;;;;;;;5.30;2.33;;;27.50;52.30;;;;;;5057764;28;20033;-69
2023/07/11 07:33:36;;;;;;;4.22;2.80;;;27.50;52.50;;;;;;5066909;28;20047;-68
2023/07/11 07:36:05;;;;;;;4.57;2.05;;;27.50;52.20;;;;;;5053861;28;20293;-69
2023/07/11 07:38:31;;;;;;;4.63;2.50;;;27.50;52.50;;;;;;5059033;28;20079;-67
2023/07/11 07:41:00;;;;;;;4.45;2.35;;;27.50;52.20;;;;;;5052554;28;20024;-67
2023/07/11 07:43:27;;;;;;;3.65;2.20;;;27.60;52.50;;;;;;5057588;28;20462;-68
2023/07/11 07:45:55;;;;;;;7.32;2.53;;;27.60;52.40;;;;;;5062274;28;20016;-69
2023/07/11 07:48:22;;;;;;;5.05;1.80;;;27.70;52.10;;;;;;5064832;28;20036;-68
2023/07/11 07:50:48;;;;;;;4.35;1.85;;;27.80;52.30;;;;;;5050974;28;20016;-68
2023/07/11 07:53:15;;;;;;;3.88;1.90;;;28.00;52.60;;;;;;5057129;28;20086;-69
2023/07/11 07:55:40;;;;;;;5.03;1.90;;;28.10;51.60;;;;;;5057152;28;20052;-68
2023/07/11 07:58:07;;;;;;;5.90;2.53;;;28.30;52.00;;;;;;5049648;28;20060;-68
2023/07/11 08:00:33;;;;;;;6.75;2.72;;;28.30;51.40;;;;;;5056084;28;20016;-69
2023/07/11 08:02:59;;;;;;;4.47;1.95;;;28.20;50.60;;;;;;5048419;28;20025;-67
2023/07/11 08:05:26;;;;;;;4.57;2.10;;;28.10;50.80;;;;;;5051173;28;20025;-68
2023/07/11 08:07:51;;;;;;;6.53;2.33;;;28.00;50.80;;;;;;5049119;28;20032;-69
2023/07/11 08:10:18;;;;;;;5.03;2.30;;;28.00;51.00;;;;;;5050614;28;20025;-69
2023/07/11 08:12:44;;;;;;;5.00;2.28;;;28.00;50.90;;;;;;5034258;28;20016;-69
2023/07/11 08:15:11;;;;;;;6.80;2.35;;;28.10;50.60;;;;;;5053726;28;20021;-69
2023/07/11 08:17:38;;;;;;;4.68;1.95;;;28.10;50.50;;;;;;5051317;28;20476;-68
2023/07/11 08:20:04;;;;;;;5.25;2.13;;;28.20;50.70;;;;;;5051804;28;20017;-68
2023/07/11 08:22:30;;;;;;;3.38;1.95;;;28.50;50.30;;;;;;5052891;28;20033;-69
2023/07/11 08:24:56;;;;;;;5.45;2.20;;;28.70;50.20;;;;;;5051504;28;20072;-69
2023/07/11 08:27:22;;;;;;;3.70;1.90;;;28.90;49.70;;;;;;5054130;28;20020;-69
2023/07/11 08:29:48;;;;;;;4.93;1.70;;;28.90;49.00;;;;;;5053469;28;20021;-68
2023/07/11 08:32:14;;;;;;;2.53;1.70;;;29.00;49.10;;;;;;5055196;28;20040;-66
2023/07/11 08:34:43;;;;;;;3.95;2.20;;;29.20;49.10;;;;;;5049235;28;20111;-69
2023/07/11 08:37:10;;;;;;;3.75;1.85;;;29.50;49.10;;;;;;5068114;28;20119;-68
2023/07/11 08:39:37;;;;;;;3.75;1.85;;;29.60;48.50;;;;;;5032946;28;20021;-69
2023/07/11 08:42:12;;;;;;;3.65;1.80;;;29.70;48.60;;;;;;5029975;28;20025;-69
2023/07/11 08:44:43;;;;;;;3.45;1.70;;;29.70;46.50;;;;;;5053006;28;20029;-67
2023/07/11 08:47:21;;;;;;;4.35;2.17;;;29.50;46.50;;;;;;5050049;28;20083;-68
2023/07/11 08:49:57;;;;;;;5.97;1.88;;;29.50;46.80;;;;;;5051089;28;20029;-67
2023/07/11 08:52:25;;;;;;;4.25;1.80;;;29.50;47.00;;;;;;5054065;28;20056;-69
2023/07/11 08:54:54;;;;;;;4.32;1.70;;;29.50;46.40;;;;;;5050222;28;20036;-68
2023/07/11 08:57:23;;;;;;;6.18;1.60;;;29.50;46.80;;;;;;5051474;28;20491;-67
2023/07/11 09:00:23;;;;;;;4.85;1.70;;;29.60;46.80;;;;;;5050956;28;20023;-69
2023/07/11 09:03:04;;;;;;;4.43;1.80;;;29.60;46.60;;;;;;5024717;28;20040;-69
2023/07/11 09:05:39;;;;;;;;;;;29.60;46.50;;;;;;5052801;28;20102;-69
2023/07/11 09:08:05;;;;;;;5.15;1.90;;;29.70;46.80;;;;;;5053850;28;20003;-69
2023/07/11 09:10:49;;;;;;;5.30;1.98;;;29.70;46.50;;;;;;5052100;28;20100;-68
2023/07/11 09:13:50;;;;;;;2.97;1.40;;;29.70;46.30;;;;;;5051556;28;20116;-69
2023/07/11 09:16:42;;;;;;;2.95;1.48;;;29.70;46.40;;;;;;5020710;28;20052;-68
2023/07/11 09:19:17;;;;;;;4.53;1.80;;;29.80;46.50;;;;;;5050304;28;20040;-68
2023/07/11 09:22:22;;;;;;;2.92;1.40;;;30.00;46.80;;;;;;5045561;28;20017;-68
2023/07/11 09:25:32;;;;;;;4.78;1.73;;;30.30;46.70;;;;;;5033076;28;20040;-69
2023/07/11 09:28:05;;;;;;;3.55;1.40;;;30.20;46.10;;;;;;5046930;28;20060;-70
2023/07/11 09:30:52;;;;;;;4.15;2.00;;;30.20;45.80;;;;;;5048780;28;20709;-67
2023/07/11 09:33:22;;;;;;;3.08;1.50;;;30.00;45.40;;;;;;5045881;28;20043;-69
2023/07/11 09:35:50;;;;;;;4.90;1.63;;;29.90;45.70;;;;;;5051470;28;20067;-70
2023/07/11 09:38:40;;;;;;;4.15;1.65;;;29.80;46.00;;;;;;5053700;28;20029;-68
2023/07/11 09:41:15;;;;;;;3.63;1.30;;;29.80;46.30;;;;;;5049722;28;20548;-68
2023/07/11 09:43:41;;;;;;;3.10;1.52;;;29.80;46.00;;;;;;5050723;28;20020;-70
2023/07/11 09:46:15;;;;;;;3.42;1.40;;;29.80;46.20;;;;;;5035145;28;20055;-70
2023/07/11 09:48:44;;;;;;;2.72;1.55;;;29.80;46.50;;;;;;5049099;28;20040;-70
2023/07/11 09:51:36;;;;;;;2.20;1.42;;;29.80;45.80;;;;;;5049893;28;20113;-69
2023/07/11 09:54:04;;;;;;;2.60;1.30;;;29.90;46.40;;;;;;5048521;28;20499;-69
2023/07/11 09:56:43;;;;;;;3.45;1.90;;;30.00;46.30;;;;;;5051237;28;20069;-67
2023/07/11 09:59:11;;;;;;;3.28;1.60;;;29.90;45.20;;;;;;5065631;28;20499;-71
2023/07/11 10:01:37;;;;;;;2.75;1.45;;;29.90;45.70;;;;;;5037359;28;20028;-70
2023/07/11 10:04:07;;;;;;;4.50;1.55;;;29.90;45.30;;;;;;5052748;28;20094;-70
2023/07/11 10:07:06;;;;;;;2.93;1.47;;;29.90;45.60;;;;;;5049142;28;20025;-71
2023/07/11 10:09:36;;;;;;;2.38;1.50;;;29.90;45.50;;;;;;5062140;28;20033;-70
2023/07/11 10:12:12;;;;;;;3.88;1.40;;;29.90;45.20;;;;;;5050358;28;20036;-70
2023/07/11 10:14:46;;;;;;;4.10;1.75;;;30.00;45.50;;;;;;5049702;28;20134;-69
2023/07/11 10:17:25;;;;;;;3.30;1.60;;;30.00;45.50;;;;;;5052454;28;20214;-70
2023/07/11 10:19:59;;;;;;;4.20;1.50;;;30.10;45.60;;;;;;5049995;28;20028;-68
2023/07/11 10:22:27;;;;;;;2.42;1.40;;;30.20;45.60;;;;;;5034229;28;20729;-69
2023/07/11 10:25:27;;;;;;;4.20;1.58;;;30.20;45.60;;;;;;5053355;28;20570;-68
2023/07/11 10:27:57;;;;;;;3.45;1.50;;;30.30;45.80;;;;;;5031099;28;20119;-69
2023/07/11 10:30:26;;;;;;;8.82;2.03;;;30.40;45.50;;;;;;5049803;28;20108;-69
2023/07/11 10:33:09;;;;;;;3.50;1.65;;;30.50;45.60;;;;;;5049678;28;20025;-69
2023/07/11 10:35:37;;;;;;;5.20;1.88;;;30.60;45.60;;;;;;5030439;28;20029;-69
2023/07/11 10:38:06;;;;;;;4.28;2.00;;;30.80;45.60;;;;;;5049489;28;20025;-69
2023/07/11 10:40:37;;;;;;;3.97;2.08;;;31.00;45.40;;;;;;5044861;28;20403;-69
2023/07/11 10:43:23;;;;;;;2.97;1.80;;;31.10;45.10;;;;;;5048338;28;20052;-69
2023/07/11 10:45:53;;;;;;;2.67;1.55;;;31.00;45.10;;;;;;5042297;28;20040;-69
2023/07/11 10:48:22;;;;;;;3.38;1.52;;;31.00;44.90;;;;;;5031156;28;20075;-69
2023/07/11 10:50:59;;;;;;;3.72;1.58;;;30.90;45.00;;;;;;5050049;28;20302;-70
2023/07/11 10:53:47;;;;;;;3.80;1.40;;;31.00;45.00;;;;;;5033174;28;20426;-70
2023/07/11 10:56:26;;;;;;;2.80;1.50;;;31.20;45.00;;;;;;5051633;28;20057;-70
2023/07/11 10:58:53;;;;;;;3.83;1.90;;;31.20;44.40;;;;;;5048470;28;20028;-69
2023/07/11 11:01:39;;;;;;;4.38;1.80;;;31.10;43.90;;;;;;5050232;28;20033;-70
2023/07/11 11:04:17;;;;;;;4.32;2.10;;;31.00;43.90;;;;;;5048964;28;20028;-68
2023/07/11 11:07:09;;;;;;;2.60;1.88;;;30.90;43.10;;;;;;5048472;28;20105;-69
2023/07/11 11:09:54;;;;;;;3.00;1.85;;;30.90;43.70;;;;;;5050553;28;20055;-69
2023/07/11 11:12:34;;;;;;;3.92;1.92;;;30.90;43.80;;;;;;5048645;28;20029;-69
2023/07/11 11:15:19;;;;;;;2.75;1.80;;;30.80;43.50;;;;;;5048987;28;20101;-69
2023/07/11 11:18:06;;;;;;;4.00;1.83;;;30.70;43.60;;;;;;5047003;28;20029;-69
2023/07/11 11:21:03;;;;;;;3.17;1.88;;;30.80;44.00;;;;;;5048873;28;20025;-70
2023/07/11 11:23:57;;;;;;;4.63;1.92;;;30.80;44.00;;;;;;5050810;28;20021;-71
2023/07/11 11:27:14;;;;;;;3.63;1.85;;;30.90;44.20;;;;;;5049573;28;20550;-71
2023/07/11 11:29:46;;;;;;;2.63;1.77;;;31.00;43.90;;;;;;5045170;28;20037;-70
2023/07/11 11:32:24;;;;;;;4.10;1.73;;;31.20;43.70;;;;;;5050155;28;21740;-70
2023/07/11 11:35:05;;;;;;;3.30;1.60;;;31.20;43.30;;;;;;5051244;28;20029;-71
2023/07/11 11:37:36;;;;;;;2.90;1.75;;;31.20;43.60;;;;;;5049859;28;20685;-68
2023/07/11 11:40:08;;;;;;;;;;;31.30;43.60;;;;;;5051178;28;20029;-70
2023/07/11 11:42:34;;;;;;;;;;;31.40;43.40;;;;;;5048823;28;19905;-69
2023/07/11 11:45:07;;;;;;;2.38;1.60;;;31.60;43.70;;;;;;5050168;28;21258;-70
2023/07/11 11:47:34;;;;;;;4.65;2.63;;;31.70;43.80;;;;;;5034711;28;20040;-70
2023/07/11 11:50:01;;;;;;;4.72;1.92;;;31.80;43.80;;;;;;5048326;28;20028;-71
2023/07/11 11:52:32;;;;;;;3.17;1.90;;;31.80;43.40;;;;;;5046535;28;20066;-71
2023/07/11 11:54:58;;;;;;;;;;;31.60;43.60;;;;;;5049063;28;20028;-70
2023/07/11 11:57:31;;;;;;;3.22;1.70;;;31.70;43.80;;;;;;5051074;28;19991;-71
2023/07/11 11:59:58;;;;;;;4.40;1.85;;;31.70;43.70;;;;;;5050701;28;20148;-69
2023/07/11 12:02:34;;;;;;;4.90;1.60;;;31.70;43.70;;;;;;5050676;28;20024;-70
2023/07/11 12:05:08;;;;;;;2.75;1.60;;;31.60;43.50;;;;;;5051631;28;20446;-70
2023/07/11 12:07:40;;;;;;;3.85;1.55;;;31.60;43.50;;;;;;5051937;28;20055;-70
2023/07/11 12:10:08;;;;;;;;;;;31.70;43.60;;;;;;5049451;28;20036;-70
2023/07/11 12:12:34;;;;;;;3.47;1.73;;;31.70;43.60;;;;;;5052544;28;19911;-68
2023/07/11 12:15:20;;;;;;;4.45;1.70;;;31.80;43.70;;;;;;5049960;28;20038;-70
2023/07/11 12:17:48;;;;;;;2.50;1.60;;;31.70;43.90;;;;;;5046978;28;20040;-70
2023/07/11 12:20:20;;;;;;;4.88;1.85;;;31.80;44.00;;;;;;5048997;28;20048;-71
2023/07/11 12:22:46;;;;;;;4.00;2.03;;;31.90;43.60;;;;;;5050863;28;20017;-70
2023/07/11 12:25:26;;;;;;;6.38;1.75;;;31.70;43.00;;;;;;5051024;28;20087;-69
2023/07/11 12:27:59;;;;;;;3.38;1.40;;;31.60;43.30;;;;;;5047625;28;20503;-70
2023/07/11 12:30:31;;;;;;;4.00;1.60;;;31.70;43.90;;;;;;5050721;28;20440;-69
2023/07/11 12:33:13;;;;;;;3.40;1.80;;;32.00;43.90;;;;;;5047462;28;20645;-69
2023/07/11 12:35:40;;;;;;;3.00;1.58;;;32.00;43.50;;;;;;5047070;28;20128;-69
2023/07/11 12:38:15;;;;;;;2.63;1.60;;;32.20;43.70;;;;;;5050985;28;20021;-70
2023/07/11 12:41:05;;;;;;;3.85;2.08;;;32.40;43.70;;;;;;5049384;28;20426;-70
2023/07/11 12:43:34;;;;;;;2.53;1.50;;;32.30;43.10;;;;;;5055900;28;20032;-68
2023/07/11 12:46:09;;;;;;;5.07;1.83;;;32.50;43.20;;;;;;5050160;28;20092;-70
2023/07/11 12:48:42;;;;;;;4.20;1.90;;;32.40;43.20;;;;;;5050156;28;20032;-69
2023/07/11 12:51:27;;;;;;;2.95;1.63;;;32.20;43.20;;;;;;5049324;28;20028;-69
2023/07/11 12:54:10;;;;;;;5.78;1.60;;;32.30;43.10;;;;;;5049210;28;20021;-69
2023/07/11 12:56:42;;;;;;;3.05;1.73;;;32.70;43.40;;;;;;5053176;28;20059;-69
2023/07/11 12:59:28;;;;;;;3.72;1.73;;;32.90;42.70;;;;;;5050145;28;20025;-69
2023/07/11 13:01:58;;;;;;;2.53;1.60;;;33.00;42.30;;;;;;5049730;28;20101;-67
2023/07/11 13:04:37;;;;;;;3.75;1.52;;;33.20;42.40;;;;;;5053844;28;20044;-68